sensor_id;sensor_type;location;lat;lon;timestamp;P1;durP1;ratioP1;P2;durP2;ratioP2
14584;SDS011;7379;51.506;11.876;2023-07-20T00:01:14;5.95;;;2.30;;
14584;SDS011;7379;51.506;11.876;2023-07-20T00:03:41;4.60;;;2.08;;
14584;SDS011;7379;51.506;11.876;2023-07-20T00:06:08;3.55;;;2.10;;
14584;SDS011;7379;51.506;11.876;2023-07-20T00:08:34;2.60;;;1.98;;
14584;SDS011;7379;51.506;11.876;2023-07-20T00:11:02;2.30;;;2.00;;
14584;SDS011;7379;51.506;11.876;2023-07-20T00:13:28;2.78;;;2.03;;
14584;SDS011;7379;51.506;11.876;2023-07-20T00:15:55;3.47;;;1.90;;
14584;SDS011;7379;51.506;11.876;2023-07-20T00:18:23;2.20;;;2.00;;
14584;SDS011;7379;51.506;11.876;2023-07-20T00:20:50;2.65;;;1.90;;
14584;SDS011;7379;51.506;11.876;2023-07-20T00:23:17;2.38;;;1.90;;
14584;SDS011;7379;51.506;11.876;2023-07-20T00:25:47;2.30;;;1.80;;
14584;SDS011;7379;51.506;11.876;2023-07-20T00:28:14;2.30;;;1.90;;
14584;SDS011;7379;51.506;11.876;2023-07-20T00:30:41;3.00;;;1.70;;
14584;SDS011;7379;51.506;11.876;2023-07-20T00:33:09;2.75;;;1.90;;
14584;SDS011;7379;51.506;11.876;2023-07-20T00:35:38;2.42;;;1.77;;
14584;SDS011;7379;51.506;11.876;2023-07-20T00:38:05;2.90;;;1.95;;
14584;SDS011;7379;51.506;11.876;2023-07-20T00:40:35;2.30;;;2.00;;
14584;SDS011;7379;51.506;11.876;2023-07-20T00:43:02;2.83;;;2.00;;
14584;SDS011;7379;51.506;11.876;2023-07-20T00:45:29;3.53;;;2.17;;
14584;SDS011;7379;51.506;11.876;2023-07-20T00:47:57;2.08;;;1.73;;
14584;SDS011;7379;51.506;11.876;2023-07-20T00:50:24;8.15;;;2.10;;
14584;SDS011;7379;51.506;11.876;2023-07-20T00:52:54;3.60;;;1.85;;
14584;SDS011;7379;51.506;11.876;2023-07-20T00:55:22;2.33;;;1.90;;
14584;SDS011;7379;51.506;11.876;2023-07-20T00:57:50;3.65;;;1.90;;
14584;SDS011;7379;51.506;11.876;2023-07-20T01:00:17;2.60;;;1.88;;
14584;SDS011;7379;51.506;11.876;2023-07-20T01:02:44;2.33;;;1.80;;
14584;SDS011;7379;51.506;11.876;2023-07-20T01:05:10;2.72;;;1.95;;
14584;SDS011;7379;51.506;11.876;2023-07-20T01:07:38;2.40;;;1.90;;
14584;SDS011;7379;51.506;11.876;2023-07-20T01:10:10;3.50;;;2.10;;
14584;SDS011;7379;51.506;11.876;2023-07-20T01:12:42;2.30;;;2.00;;
14584;SDS011;7379;51.506;11.876;2023-07-20T01:15:09;2.58;;;1.80;;
14584;SDS011;7379;51.506;11.876;2023-07-20T01:17:37;2.67;;;1.90;;
14584;SDS011;7379;51.506;11.876;2023-07-20T01:20:04;2.75;;;2.10;;
14584;SDS011;7379;51.506;11.876;2023-07-20T01:22:38;3.40;;;2.03;;
14584;SDS011;7379;51.506;11.876;2023-07-20T01:25:37;2.63;;;2.00;;
14584;SDS011;7379;51.506;11.876;2023-07-20T01:28:32;3.22;;;2.00;;
14584;SDS011;7379;51.506;11.876;2023-07-20T01:33:50;3.65;;;2.20;;
14584;SDS011;7379;51.506;11.876;2023-07-20T01:36:21;3.22;;;2.00;;
14584;SDS011;7379;51.506;11.876;2023-07-20T01:38:50;2.65;;;2.00;;
14584;SDS011;7379;51.506;11.876;2023-07-20T01:41:17;4.38;;;2.10;;
14584;SDS011;7379;51.506;11.876;2023-07-20T01:43:44;3.38;;;1.90;;
14584;SDS011;7379;51.506;11.876;2023-07-20T01:46:12;3.53;;;2.20;;
14584;SDS011;7379;51.506;11.876;2023-07-20T01:48:40;6.38;;;2.30;;
14584;SDS011;7379;51.506;11.876;2023-07-20T01:51:07;2.88;;;1.95;;
14584;SDS011;7379;51.506;11.876;2023-07-20T01:53:34;4.20;;;2.30;;
14584;SDS011;7379;51.506;11.876;2023-07-20T01:56:00;7.00;;;2.13;;
14584;SDS011;7379;51.506;11.876;2023-07-20T01:58:27;3.90;;;2.00;;
14584;SDS011;7379;51.506;11.876;2023-07-20T02:00:54;3.47;;;1.90;;
14584;SDS011;7379;51.506;11.876;2023-07-20T02:03:21;4.20;;;1.90;;
14584;SDS011;7379;51.506;11.876;2023-07-20T02:05:50;3.45;;;2.10;;
14584;SDS011;7379;51.506;11.876;2023-07-20T02:08:17;3.90;;;2.20;;
14584;SDS011;7379;51.506;11.876;2023-07-20T02:10:45;6.65;;;2.17;;
14584;SDS011;7379;51.506;11.876;2023-07-20T02:13:12;3.53;;;2.20;;
14584;SDS011;7379;51.506;11.876;2023-07-20T02:15:38;3.05;;;2.20;;
14584;SDS011;7379;51.506;11.876;2023-07-20T02:18:05;4.32;;;2.33;;
14584;SDS011;7379;51.506;11.876;2023-07-20T02:20:32;3.95;;;2.13;;
14584;SDS011;7379;51.506;11.876;2023-07-20T02:23:00;3.38;;;1.95;;
14584;SDS011;7379;51.506;11.876;2023-07-20T02:25:27;4.70;;;2.30;;
14584;SDS011;7379;51.506;11.876;2023-07-20T02:27:56;4.05;;;2.25;;
14584;SDS011;7379;51.506;11.876;2023-07-20T02:30:23;4.50;;;2.00;;
14584;SDS011;7379;51.506;11.876;2023-07-20T02:32:50;3.08;;;2.05;;
14584;SDS011;7379;51.506;11.876;2023-07-20T02:35:16;3.50;;;2.33;;
14584;SDS011;7379;51.506;11.876;2023-07-20T02:37:43;3.72;;;2.10;;
14584;SDS011;7379;51.506;11.876;2023-07-20T02:40:12;3.42;;;2.00;;
14584;SDS011;7379;51.506;11.876;2023-07-20T02:42:39;5.18;;;2.03;;
14584;SDS011;7379;51.506;11.876;2023-07-20T02:45:06;5.00;;;2.00;;
14584;SDS011;7379;51.506;11.876;2023-07-20T02:47:33;6.60;;;2.53;;
14584;SDS011;7379;51.506;11.876;2023-07-20T02:50:00;5.90;;;2.33;;
14584;SDS011;7379;51.506;11.876;2023-07-20T02:52:27;6.45;;;2.40;;
14584;SDS011;7379;51.506;11.876;2023-07-20T02:54:54;6.18;;;2.15;;
14584;SDS011;7379;51.506;11.876;2023-07-20T02:57:23;4.78;;;2.30;;
14584;SDS011;7379;51.506;11.876;2023-07-20T02:59:49;5.47;;;2.28;;
14584;SDS011;7379;51.506;11.876;2023-07-20T03:02:16;6.43;;;2.42;;
14584;SDS011;7379;51.506;11.876;2023-07-20T03:04:43;6.13;;;2.20;;
14584;SDS011;7379;51.506;11.876;2023-07-20T03:07:10;4.88;;;2.20;;
14584;SDS011;7379;51.506;11.876;2023-07-20T03:09:36;6.45;;;2.40;;
14584;SDS011;7379;51.506;11.876;2023-07-20T03:12:04;4.13;;;2.22;;
14584;SDS011;7379;51.506;11.876;2023-07-20T03:14:33;3.72;;;2.15;;
14584;SDS011;7379;51.506;11.876;2023-07-20T03:17:00;3.67;;;2.28;;
14584;SDS011;7379;51.506;11.876;2023-07-20T03:19:27;5.32;;;2.20;;
14584;SDS011;7379;51.506;11.876;2023-07-20T03:21:54;4.88;;;2.50;;
14584;SDS011;7379;51.506;11.876;2023-07-20T03:24:20;8.27;;;2.63;;
14584;SDS011;7379;51.506;11.876;2023-07-20T03:26:48;3.70;;;2.40;;
14584;SDS011;7379;51.506;11.876;2023-07-20T03:29:15;5.00;;;2.40;;
14584;SDS011;7379;51.506;11.876;2023-07-20T03:31:43;5.63;;;2.30;;
14584;SDS011;7379;51.506;11.876;2023-07-20T03:34:10;7.35;;;2.30;;
14584;SDS011;7379;51.506;11.876;2023-07-20T03:36:37;4.20;;;2.35;;
14584;SDS011;7379;51.506;11.876;2023-07-20T03:39:03;4.13;;;2.40;;
14584;SDS011;7379;51.506;11.876;2023-07-20T03:41:30;5.28;;;2.38;;
14584;SDS011;7379;51.506;11.876;2023-07-20T03:43:57;4.43;;;2.20;;
14584;SDS011;7379;51.506;11.876;2023-07-20T03:46:24;3.88;;;2.25;;
14584;SDS011;7379;51.506;11.876;2023-07-20T03:48:52;3.42;;;2.30;;
14584;SDS011;7379;51.506;11.876;2023-07-20T03:51:19;3.13;;;2.20;;
14584;SDS011;7379;51.506;11.876;2023-07-20T03:53:46;6.00;;;2.42;;
14584;SDS011;7379;51.506;11.876;2023-07-20T03:56:12;4.60;;;2.13;;
14584;SDS011;7379;51.506;11.876;2023-07-20T03:58:39;4.20;;;2.13;;
14584;SDS011;7379;51.506;11.876;2023-07-20T04:01:06;4.28;;;2.28;;
14584;SDS011;7379;51.506;11.876;2023-07-20T04:03:34;4.47;;;2.30;;
14584;SDS011;7379;51.506;11.876;2023-07-20T04:06:02;6.72;;;2.15;;
14584;SDS011;7379;51.506;11.876;2023-07-20T04:08:29;8.00;;;2.40;;
14584;SDS011;7379;51.506;11.876;2023-07-20T04:10:56;3.40;;;1.95;;
14584;SDS011;7379;51.506;11.876;2023-07-20T04:13:23;2.70;;;1.90;;
14584;SDS011;7379;51.506;11.876;2023-07-20T04:15:50;3.35;;;2.40;;
14584;SDS011;7379;51.506;11.876;2023-07-20T04:18:16;4.55;;;2.10;;
14584;SDS011;7379;51.506;11.876;2023-07-20T04:20:43;3.45;;;2.22;;
14584;SDS011;7379;51.506;11.876;2023-07-20T04:23:11;4.03;;;2.42;;
14584;SDS011;7379;51.506;11.876;2023-07-20T04:25:38;4.30;;;2.40;;
14584;SDS011;7379;51.506;11.876;2023-07-20T04:28:06;4.22;;;2.30;;
14584;SDS011;7379;51.506;11.876;2023-07-20T04:30:36;6.35;;;2.05;;
14584;SDS011;7379;51.506;11.876;2023-07-20T04:33:03;3.17;;;2.13;;
14584;SDS011;7379;51.506;11.876;2023-07-20T04:35:46;5.82;;;2.20;;
14584;SDS011;7379;51.506;11.876;2023-07-20T04:38:18;4.07;;;2.20;;
14584;SDS011;7379;51.506;11.876;2023-07-20T04:40:45;4.68;;;2.50;;
14584;SDS011;7379;51.506;11.876;2023-07-20T04:43:13;3.17;;;2.25;;
14584;SDS011;7379;51.506;11.876;2023-07-20T04:45:40;3.80;;;2.33;;
14584;SDS011;7379;51.506;11.876;2023-07-20T04:48:08;3.90;;;2.58;;
14584;SDS011;7379;51.506;11.876;2023-07-20T04:50:37;4.28;;;2.47;;
14584;SDS011;7379;51.506;11.876;2023-07-20T04:53:04;5.63;;;2.78;;
14584;SDS011;7379;51.506;11.876;2023-07-20T04:55:32;4.90;;;2.60;;
14584;SDS011;7379;51.506;11.876;2023-07-20T04:58:00;3.40;;;2.50;;
14584;SDS011;7379;51.506;11.876;2023-07-20T05:00:26;3.10;;;2.33;;
14584;SDS011;7379;51.506;11.876;2023-07-20T05:02:53;5.28;;;2.42;;
14584;SDS011;7379;51.506;11.876;2023-07-20T05:05:20;3.00;;;2.10;;
14584;SDS011;7379;51.506;11.876;2023-07-20T05:07:46;6.22;;;2.47;;
14584;SDS011;7379;51.506;11.876;2023-07-20T05:10:13;3.78;;;2.30;;
14584;SDS011;7379;51.506;11.876;2023-07-20T05:12:41;4.15;;;2.30;;
14584;SDS011;7379;51.506;11.876;2023-07-20T05:15:08;5.60;;;2.45;;
14584;SDS011;7379;51.506;11.876;2023-07-20T05:17:36;3.33;;;2.20;;
14584;SDS011;7379;51.506;11.876;2023-07-20T05:20:03;4.18;;;2.28;;
14584;SDS011;7379;51.506;11.876;2023-07-20T05:22:30;5.22;;;2.67;;
14584;SDS011;7379;51.506;11.876;2023-07-20T05:24:57;3.75;;;2.30;;
14584;SDS011;7379;51.506;11.876;2023-07-20T05:27:24;3.92;;;2.20;;
14584;SDS011;7379;51.506;11.876;2023-07-20T05:29:52;3.05;;;2.20;;
14584;SDS011;7379;51.506;11.876;2023-07-20T05:32:18;5.07;;;2.55;;
14584;SDS011;7379;51.506;11.876;2023-07-20T05:34:45;5.25;;;2.70;;
14584;SDS011;7379;51.506;11.876;2023-07-20T05:37:12;6.50;;;2.75;;
14584;SDS011;7379;51.506;11.876;2023-07-20T05:39:39;4.63;;;2.40;;
14584;SDS011;7379;51.506;11.876;2023-07-20T05:42:05;3.67;;;2.22;;
14584;SDS011;7379;51.506;11.876;2023-07-20T05:44:32;4.55;;;2.70;;
14584;SDS011;7379;51.506;11.876;2023-07-20T05:47:00;2.50;;;2.30;;
14584;SDS011;7379;51.506;11.876;2023-07-20T05:49:27;6.32;;;2.67;;
14584;SDS011;7379;51.506;11.876;2023-07-20T05:51:54;4.53;;;2.38;;
14584;SDS011;7379;51.506;11.876;2023-07-20T05:54:21;4.93;;;2.15;;
14584;SDS011;7379;51.506;11.876;2023-07-20T05:56:48;6.10;;;2.70;;
14584;SDS011;7379;51.506;11.876;2023-07-20T05:59:15;4.90;;;2.30;;
14584;SDS011;7379;51.506;11.876;2023-07-20T06:01:42;8.43;;;2.47;;
14584;SDS011;7379;51.506;11.876;2023-07-20T06:04:10;6.03;;;2.80;;
14584;SDS011;7379;51.506;11.876;2023-07-20T06:06:37;4.53;;;2.10;;
14584;SDS011;7379;51.506;11.876;2023-07-20T06:09:04;4.35;;;2.20;;
14584;SDS011;7379;51.506;11.876;2023-07-20T06:11:34;3.40;;;2.10;;
14584;SDS011;7379;51.506;11.876;2023-07-20T06:14:01;3.65;;;2.45;;
14584;SDS011;7379;51.506;11.876;2023-07-20T06:16:28;2.60;;;2.38;;
14584;SDS011;7379;51.506;11.876;2023-07-20T06:18:55;4.43;;;2.30;;
14584;SDS011;7379;51.506;11.876;2023-07-20T06:21:23;3.15;;;2.40;;
14584;SDS011;7379;51.506;11.876;2023-07-20T06:23:50;4.47;;;2.22;;
14584;SDS011;7379;51.506;11.876;2023-07-20T06:26:17;5.63;;;2.25;;
14584;SDS011;7379;51.506;11.876;2023-07-20T06:28:44;3.78;;;2.20;;
14584;SDS011;7379;51.506;11.876;2023-07-20T06:31:11;3.88;;;2.20;;
14584;SDS011;7379;51.506;11.876;2023-07-20T06:33:38;5.35;;;2.30;;
14584;SDS011;7379;51.506;11.876;2023-07-20T06:36:05;5.03;;;2.20;;
14584;SDS011;7379;51.506;11.876;2023-07-20T06:38:33;2.67;;;2.30;;
14584;SDS011;7379;51.506;11.876;2023-07-20T06:41:00;4.80;;;2.00;;
14584;SDS011;7379;51.506;11.876;2023-07-20T06:43:26;3.33;;;2.50;;
14584;SDS011;7379;51.506;11.876;2023-07-20T06:45:53;2.80;;;2.03;;
14584;SDS011;7379;51.506;11.876;2023-07-20T06:48:21;5.60;;;2.47;;
14584;SDS011;7379;51.506;11.876;2023-07-20T06:50:48;3.83;;;2.28;;
14584;SDS011;7379;51.506;11.876;2023-07-20T06:53:14;2.40;;;2.10;;
14584;SDS011;7379;51.506;11.876;2023-07-20T06:55:44;2.72;;;2.30;;
14584;SDS011;7379;51.506;11.876;2023-07-20T06:58:11;2.83;;;2.40;;
14584;SDS011;7379;51.506;11.876;2023-07-20T07:00:38;2.95;;;2.10;;
14584;SDS011;7379;51.506;11.876;2023-07-20T07:03:04;3.75;;;2.20;;
14584;SDS011;7379;51.506;11.876;2023-07-20T07:05:34;3.35;;;2.50;;
14584;SDS011;7379;51.506;11.876;2023-07-20T07:08:02;2.42;;;2.20;;
14584;SDS011;7379;51.506;11.876;2023-07-20T07:10:29;3.05;;;2.30;;
14584;SDS011;7379;51.506;11.876;2023-07-20T07:12:57;3.65;;;2.40;;
14584;SDS011;7379;51.506;11.876;2023-07-20T07:15:25;3.00;;;2.20;;
14584;SDS011;7379;51.506;11.876;2023-07-20T07:17:52;4.25;;;2.50;;
14584;SDS011;7379;51.506;11.876;2023-07-20T07:20:19;3.80;;;2.60;;
14584;SDS011;7379;51.506;11.876;2023-07-20T07:22:46;3.63;;;2.70;;
14584;SDS011;7379;51.506;11.876;2023-07-20T07:25:13;3.67;;;2.60;;
14584;SDS011;7379;51.506;11.876;2023-07-20T07:27:40;4.55;;;2.95;;
14584;SDS011;7379;51.506;11.876;2023-07-20T07:30:09;5.45;;;2.80;;
14584;SDS011;7379;51.506;11.876;2023-07-20T07:32:36;3.80;;;2.65;;
14584;SDS011;7379;51.506;11.876;2023-07-20T07:35:03;3.72;;;2.95;;
14584;SDS011;7379;51.506;11.876;2023-07-20T07:37:31;4.30;;;3.00;;
14584;SDS011;7379;51.506;11.876;2023-07-20T07:39:57;3.38;;;3.08;;
14584;SDS011;7379;51.506;11.876;2023-07-20T07:42:24;4.78;;;3.80;;
14584;SDS011;7379;51.506;11.876;2023-07-20T07:44:51;5.13;;;2.97;;
14584;SDS011;7379;51.506;11.876;2023-07-20T07:47:19;3.90;;;3.60;;
14584;SDS011;7379;51.506;11.876;2023-07-20T07:49:46;3.75;;;3.15;;
14584;SDS011;7379;51.506;11.876;2023-07-20T07:52:13;4.30;;;3.55;;
14584;SDS011;7379;51.506;11.876;2023-07-20T07:54:40;4.63;;;3.42;;
14584;SDS011;7379;51.506;11.876;2023-07-20T07:57:06;3.42;;;3.17;;
14584;SDS011;7379;51.506;11.876;2023-07-20T07:59:33;4.03;;;3.65;;
14584;SDS011;7379;51.506;11.876;2023-07-20T08:02:01;6.25;;;3.97;;
14584;SDS011;7379;51.506;11.876;2023-07-20T08:04:31;6.38;;;3.30;;
14584;SDS011;7379;51.506;11.876;2023-07-20T08:06:58;4.25;;;3.90;;
14584;SDS011;7379;51.506;11.876;2023-07-20T08:09:25;3.95;;;3.58;;
14584;SDS011;7379;51.506;11.876;2023-07-20T08:11:52;4.00;;;3.70;;
14584;SDS011;7379;51.506;11.876;2023-07-20T08:14:19;3.92;;;3.63;;
14584;SDS011;7379;51.506;11.876;2023-07-20T08:16:46;3.63;;;3.33;;
14584;SDS011;7379;51.506;11.876;2023-07-20T08:19:13;3.80;;;3.50;;
14584;SDS011;7379;51.506;11.876;2023-07-20T08:21:41;4.10;;;3.40;;
14584;SDS011;7379;51.506;11.876;2023-07-20T08:24:08;5.07;;;3.55;;
14584;SDS011;7379;51.506;11.876;2023-07-20T08:26:34;4.25;;;3.85;;
14584;SDS011;7379;51.506;11.876;2023-07-20T08:29:01;3.67;;;3.38;;
14584;SDS011;7379;51.506;11.876;2023-07-20T08:31:28;4.93;;;3.33;;
14584;SDS011;7379;51.506;11.876;2023-07-20T08:33:55;5.22;;;3.55;;
14584;SDS011;7379;51.506;11.876;2023-07-20T08:36:22;4.40;;;3.90;;
14584;SDS011;7379;51.506;11.876;2023-07-20T08:38:51;4.45;;;3.60;;
14584;SDS011;7379;51.506;11.876;2023-07-20T08:41:18;3.75;;;3.40;;
14584;SDS011;7379;51.506;11.876;2023-07-20T08:43:45;3.80;;;3.47;;
14584;SDS011;7379;51.506;11.876;2023-07-20T08:46:13;4.45;;;3.20;;
14584;SDS011;7379;51.506;11.876;2023-07-20T08:48:41;5.40;;;3.30;;
14584;SDS011;7379;51.506;11.876;2023-07-20T08:51:10;3.60;;;3.13;;
14584;SDS011;7379;51.506;11.876;2023-07-20T08:53:37;3.90;;;3.22;;
14584;SDS011;7379;51.506;11.876;2023-07-20T08:56:06;3.88;;;2.83;;
14584;SDS011;7379;51.506;11.876;2023-07-20T08:58:35;4.35;;;3.47;;
14584;SDS011;7379;51.506;11.876;2023-07-20T09:01:03;4.00;;;3.45;;
14584;SDS011;7379;51.506;11.876;2023-07-20T09:03:30;7.03;;;3.63;;
14584;SDS011;7379;51.506;11.876;2023-07-20T09:05:57;4.20;;;3.80;;
14584;SDS011;7379;51.506;11.876;2023-07-20T09:08:24;4.72;;;3.92;;
14584;SDS011;7379;51.506;11.876;2023-07-20T09:10:51;4.07;;;3.60;;
14584;SDS011;7379;51.506;11.876;2023-07-20T09:13:19;4.90;;;3.20;;
14584;SDS011;7379;51.506;11.876;2023-07-20T09:15:46;3.92;;;3.53;;
14584;SDS011;7379;51.506;11.876;2023-07-20T09:18:23;5.05;;;3.90;;
14584;SDS011;7379;51.506;11.876;2023-07-20T09:20:50;4.57;;;3.53;;
14584;SDS011;7379;51.506;11.876;2023-07-20T09:23:17;4.68;;;3.33;;
14584;SDS011;7379;51.506;11.876;2023-07-20T09:25:43;6.22;;;3.75;;
14584;SDS011;7379;51.506;11.876;2023-07-20T09:28:11;3.78;;;3.10;;
14584;SDS011;7379;51.506;11.876;2023-07-20T09:30:39;4.57;;;3.30;;
14584;SDS011;7379;51.506;11.876;2023-07-20T09:33:05;4.60;;;3.00;;
14584;SDS011;7379;51.506;11.876;2023-07-20T09:35:44;3.05;;;2.60;;
14584;SDS011;7379;51.506;11.876;2023-07-20T09:38:11;2.83;;;2.60;;
14584;SDS011;7379;51.506;11.876;2023-07-20T09:40:40;3.40;;;2.42;;
14584;SDS011;7379;51.506;11.876;2023-07-20T09:43:07;3.03;;;2.50;;
14584;SDS011;7379;51.506;11.876;2023-07-20T09:45:35;3.15;;;2.50;;
14584;SDS011;7379;51.506;11.876;2023-07-20T09:48:07;2.80;;;2.60;;
14584;SDS011;7379;51.506;11.876;2023-07-20T09:50:37;3.13;;;2.50;;
14584;SDS011;7379;51.506;11.876;2023-07-20T09:53:06;3.17;;;2.85;;
14584;SDS011;7379;51.506;11.876;2023-07-20T09:55:35;3.22;;;2.50;;
14584;SDS011;7379;51.506;11.876;2023-07-20T09:58:02;3.15;;;2.72;;
14584;SDS011;7379;51.506;11.876;2023-07-20T10:00:32;3.45;;;3.03;;
14584;SDS011;7379;51.506;11.876;2023-07-20T10:03:00;3.92;;;3.10;;
14584;SDS011;7379;51.506;11.876;2023-07-20T10:05:32;4.65;;;3.28;;
14584;SDS011;7379;51.506;11.876;2023-07-20T10:08:00;3.03;;;2.72;;
14584;SDS011;7379;51.506;11.876;2023-07-20T10:10:29;3.33;;;3.03;;
14584;SDS011;7379;51.506;11.876;2023-07-20T10:12:58;3.60;;;2.60;;
14584;SDS011;7379;51.506;11.876;2023-07-20T10:15:28;3.40;;;2.50;;
14584;SDS011;7379;51.506;11.876;2023-07-20T10:17:59;5.70;;;2.67;;
14584;SDS011;7379;51.506;11.876;2023-07-20T10:20:35;3.05;;;2.72;;
14584;SDS011;7379;51.506;11.876;2023-07-20T10:23:05;3.22;;;2.88;;
14584;SDS011;7379;51.506;11.876;2023-07-20T10:25:34;3.72;;;2.78;;
14584;SDS011;7379;51.506;11.876;2023-07-20T10:28:03;2.70;;;2.50;;
14584;SDS011;7379;51.506;11.876;2023-07-20T10:30:31;3.03;;;2.45;;
14584;SDS011;7379;51.506;11.876;2023-07-20T10:33:00;3.17;;;2.75;;
14584;SDS011;7379;51.506;11.876;2023-07-20T10:35:28;2.70;;;2.50;;
14584;SDS011;7379;51.506;11.876;2023-07-20T10:37:59;3.28;;;2.60;;
14584;SDS011;7379;51.506;11.876;2023-07-20T10:40:27;3.35;;;2.55;;
14584;SDS011;7379;51.506;11.876;2023-07-20T10:42:56;3.05;;;2.35;;
14584;SDS011;7379;51.506;11.876;2023-07-20T10:45:35;3.78;;;2.30;;
14584;SDS011;7379;51.506;11.876;2023-07-20T10:48:03;2.45;;;2.25;;
14584;SDS011;7379;51.506;11.876;2023-07-20T10:50:31;2.95;;;2.70;;
14584;SDS011;7379;51.506;11.876;2023-07-20T10:53:06;2.83;;;2.33;;
14584;SDS011;7379;51.506;11.876;2023-07-20T10:55:37;3.47;;;2.35;;
14584;SDS011;7379;51.506;11.876;2023-07-20T10:58:06;2.20;;;2.00;;
14584;SDS011;7379;51.506;11.876;2023-07-20T11:00:33;2.50;;;2.30;;
14584;SDS011;7379;51.506;11.876;2023-07-20T11:03:00;2.30;;;2.10;;
14584;SDS011;7379;51.506;11.876;2023-07-20T11:05:37;1.90;;;1.80;;
14584;SDS011;7379;51.506;11.876;2023-07-20T11:08:05;2.00;;;1.80;;
14584;SDS011;7379;51.506;11.876;2023-07-20T11:10:36;2.35;;;1.83;;
14584;SDS011;7379;51.506;11.876;2023-07-20T11:13:16;2.45;;;1.85;;
14584;SDS011;7379;51.506;11.876;2023-07-20T11:15:46;1.70;;;1.60;;
14584;SDS011;7379;51.506;11.876;2023-07-20T11:18:14;1.73;;;1.63;;
14584;SDS011;7379;51.506;11.876;2023-07-20T11:20:41;2.63;;;1.80;;
14584;SDS011;7379;51.506;11.876;2023-07-20T11:23:09;2.00;;;1.80;;
14584;SDS011;7379;51.506;11.876;2023-07-20T11:25:37;1.70;;;1.60;;
14584;SDS011;7379;51.506;11.876;2023-07-20T11:28:06;1.80;;;1.70;;
14584;SDS011;7379;51.506;11.876;2023-07-20T11:30:35;1.63;;;1.52;;
14584;SDS011;7379;51.506;11.876;2023-07-20T11:33:02;1.65;;;1.55;;
14584;SDS011;7379;51.506;11.876;2023-07-20T11:35:29;1.88;;;1.73;;
14584;SDS011;7379;51.506;11.876;2023-07-20T11:37:56;1.80;;;1.50;;
14584;SDS011;7379;51.506;11.876;2023-07-20T11:40:24;1.40;;;1.30;;
14584;SDS011;7379;51.506;11.876;2023-07-20T11:42:51;1.80;;;1.70;;
14584;SDS011;7379;51.506;11.876;2023-07-20T11:45:19;1.98;;;1.70;;
14584;SDS011;7379;51.506;11.876;2023-07-20T11:47:46;3.30;;;2.00;;
14584;SDS011;7379;51.506;11.876;2023-07-20T11:50:13;2.25;;;1.90;;
14584;SDS011;7379;51.506;11.876;2023-07-20T11:52:41;2.38;;;2.17;;
14584;SDS011;7379;51.506;11.876;2023-07-20T11:55:08;2.40;;;2.20;;
14584;SDS011;7379;51.506;11.876;2023-07-20T11:57:37;2.50;;;2.30;;
14584;SDS011;7379;51.506;11.876;2023-07-20T12:00:04;2.47;;;2.28;;
14584;SDS011;7379;51.506;11.876;2023-07-20T12:02:36;2.60;;;2.40;;
14584;SDS011;7379;51.506;11.876;2023-07-20T12:05:04;2.88;;;2.67;;
14584;SDS011;7379;51.506;11.876;2023-07-20T12:07:34;3.10;;;2.90;;
14584;SDS011;7379;51.506;11.876;2023-07-20T12:10:04;3.00;;;2.80;;
14584;SDS011;7379;51.506;11.876;2023-07-20T12:12:31;3.35;;;3.05;;
14584;SDS011;7379;51.506;11.876;2023-07-20T12:15:13;3.67;;;3.22;;
14584;SDS011;7379;51.506;11.876;2023-07-20T12:17:41;3.75;;;3.20;;
14584;SDS011;7379;51.506;11.876;2023-07-20T12:20:09;4.05;;;3.30;;
14584;SDS011;7379;51.506;11.876;2023-07-20T12:22:38;3.80;;;3.50;;
14584;SDS011;7379;51.506;11.876;2023-07-20T12:25:06;4.15;;;3.03;;
14584;SDS011;7379;51.506;11.876;2023-07-20T12:27:33;4.97;;;3.20;;
14584;SDS011;7379;51.506;11.876;2023-07-20T12:30:02;3.50;;;3.20;;
14584;SDS011;7379;51.506;11.876;2023-07-20T12:32:31;3.78;;;3.40;;
14584;SDS011;7379;51.506;11.876;2023-07-20T12:34:58;4.13;;;3.67;;
14584;SDS011;7379;51.506;11.876;2023-07-20T12:37:25;3.60;;;3.30;;
14584;SDS011;7379;51.506;11.876;2023-07-20T12:39:52;4.40;;;3.60;;
14584;SDS011;7379;51.506;11.876;2023-07-20T12:42:19;5.00;;;3.70;;
14584;SDS011;7379;51.506;11.876;2023-07-20T12:44:46;4.07;;;3.47;;
14584;SDS011;7379;51.506;11.876;2023-07-20T12:47:15;4.07;;;3.67;;
14584;SDS011;7379;51.506;11.876;2023-07-20T12:49:43;3.63;;;3.33;;
14584;SDS011;7379;51.506;11.876;2023-07-20T12:52:11;3.72;;;3.42;;
14584;SDS011;7379;51.506;11.876;2023-07-20T12:54:38;4.03;;;3.72;;
14584;SDS011;7379;51.506;11.876;2023-07-20T12:57:05;4.80;;;4.10;;
14584;SDS011;7379;51.506;11.876;2023-07-20T12:59:32;4.72;;;4.20;;
14584;SDS011;7379;51.506;11.876;2023-07-20T13:01:59;4.35;;;4.00;;
14584;SDS011;7379;51.506;11.876;2023-07-20T13:04:27;4.13;;;3.63;;
14584;SDS011;7379;51.506;11.876;2023-07-20T13:06:55;4.13;;;3.72;;
14584;SDS011;7379;51.506;11.876;2023-07-20T13:09:23;3.80;;;3.50;;
14584;SDS011;7379;51.506;11.876;2023-07-20T13:11:50;4.18;;;3.80;;
14584;SDS011;7379;51.506;11.876;2023-07-20T13:14:17;3.80;;;3.50;;
14584;SDS011;7379;51.506;11.876;2023-07-20T13:16:44;4.28;;;3.65;;
14584;SDS011;7379;51.506;11.876;2023-07-20T13:19:11;5.03;;;3.53;;
14584;SDS011;7379;51.506;11.876;2023-07-20T13:21:37;3.53;;;3.30;;
14584;SDS011;7379;51.506;11.876;2023-07-20T13:24:06;4.28;;;3.30;;
14584;SDS011;7379;51.506;11.876;2023-07-20T13:26:34;3.70;;;3.40;;
14584;SDS011;7379;51.506;11.876;2023-07-20T13:29:01;3.53;;;3.20;;
14584;SDS011;7379;51.506;11.876;2023-07-20T13:31:28;4.90;;;3.38;;
14584;SDS011;7379;51.506;11.876;2023-07-20T13:33:54;4.30;;;3.05;;
14584;SDS011;7379;51.506;11.876;2023-07-20T13:36:21;3.40;;;3.05;;
14584;SDS011;7379;51.506;11.876;2023-07-20T13:38:48;4.28;;;2.90;;
14584;SDS011;7379;51.506;11.876;2023-07-20T13:41:17;5.28;;;3.20;;
14584;SDS011;7379;51.506;11.876;2023-07-20T13:43:43;3.78;;;3.10;;
14584;SDS011;7379;51.506;11.876;2023-07-20T13:46:10;3.17;;;2.85;;
14584;SDS011;7379;51.506;11.876;2023-07-20T13:48:37;4.05;;;3.25;;
14584;SDS011;7379;51.506;11.876;2023-07-20T13:51:05;3.67;;;2.95;;
14584;SDS011;7379;51.506;11.876;2023-07-20T13:53:32;4.32;;;2.90;;
14584;SDS011;7379;51.506;11.876;2023-07-20T13:55:59;4.68;;;2.58;;
14584;SDS011;7379;51.506;11.876;2023-07-20T13:58:27;2.78;;;2.45;;
14584;SDS011;7379;51.506;11.876;2023-07-20T14:00:53;4.32;;;2.20;;
14584;SDS011;7379;51.506;11.876;2023-07-20T14:03:20;3.95;;;2.35;;
14584;SDS011;7379;51.506;11.876;2023-07-20T14:05:47;2.97;;;2.28;;
14584;SDS011;7379;51.506;11.876;2023-07-20T14:08:14;3.13;;;2.00;;
14584;SDS011;7379;51.506;11.876;2023-07-20T14:10:41;4.03;;;2.25;;
14584;SDS011;7379;51.506;11.876;2023-07-20T14:13:08;2.85;;;1.95;;
14584;SDS011;7379;51.506;11.876;2023-07-20T14:15:36;3.30;;;2.05;;
14584;SDS011;7379;51.506;11.876;2023-07-20T14:18:05;2.10;;;1.90;;
14584;SDS011;7379;51.506;11.876;2023-07-20T14:20:31;2.05;;;1.83;;
14584;SDS011;7379;51.506;11.876;2023-07-20T14:22:58;3.35;;;1.90;;
14584;SDS011;7379;51.506;11.876;2023-07-20T14:25:25;3.53;;;2.00;;
14584;SDS011;7379;51.506;11.876;2023-07-20T14:27:52;3.72;;;2.00;;
14584;SDS011;7379;51.506;11.876;2023-07-20T14:30:18;2.33;;;1.80;;
14584;SDS011;7379;51.506;11.876;2023-07-20T14:32:47;3.63;;;1.80;;
14584;SDS011;7379;51.506;11.876;2023-07-20T14:35:13;2.75;;;1.90;;
14584;SDS011;7379;51.506;11.876;2023-07-20T14:37:40;3.03;;;1.60;;
14584;SDS011;7379;51.506;11.876;2023-07-20T14:40:07;4.63;;;1.70;;
14584;SDS011;7379;51.506;11.876;2023-07-20T14:42:34;2.40;;;1.65;;
14584;SDS011;7379;51.506;11.876;2023-07-20T14:45:01;2.53;;;1.58;;
14584;SDS011;7379;51.506;11.876;2023-07-20T14:47:28;4.43;;;1.42;;
14584;SDS011;7379;51.506;11.876;2023-07-20T14:49:58;2.25;;;1.40;;
14584;SDS011;7379;51.506;11.876;2023-07-20T14:52:25;1.55;;;1.45;;
14584;SDS011;7379;51.506;11.876;2023-07-20T14:54:52;1.77;;;1.63;;